Terminal Aerodrome Forecast
Issued by NWS

Home | Current Version | Previous Version | Text Only | Print | Product List | Glossary On
Versions: 1 2 3 4 5 6 7 8 9 10 11 12 13 14 15 16 17 18 19 20 21 22 23 24 25 26
673
FTUS43 KLOT 162320
TAFORD
TAF
KORD 162320Z 1700/1806 09005KT P6SM SCT200
     FM171200 11005KT 6SM BR SCT007 BKN200
     FM171700 20007KT P6SM SCT040 OVC080
     FM180000 23006KT 6SM BR SCT010 OVC020=

USA.gov is the U.S. government's official web portal to all federal, state and local government web resources and services.